Santa Barbara — V7KK3 — position and weather

sailwx.info

Track history (hours):
 
Tides and Currents Weather Stations Pressure Air Temp Water Temp Dewpoint Dewpoint Depression Visibility Wind Speed Wind Dir Waves Ship Positions

Santa Barbara

Last reported at 2014-Jun-26 15:09 UTC. Time now 2014-Jul-23 18:10 UTC.
Position S 34°17' E 025°22'.
Warning: this ship's position is 27 days out of date.

Length 229 m; draft 8 m.

Type: Ship. MMSI: 538002632.

Date/timePositionNaut miles runAvg speedWind from/ knotsBaromVisibWave heightAir tempDewpointWater temp
2014-Jun-26 15:09S 34°17' E 025°22'5 6.3
2014-Jun-26 14:26S 34°16' E 025°27'7 7.0
2014-Jun-26 13:27S 34°14' E 025°35'101 9.3
2014-Jun-26 02:32S 33°33' E 027°26'12111.8
2014-Jun-25 16:17S 32°12' E 029°13'5513.9
2014-Jun-25 12:20S 31°31' E 029°56'7813.3
2014-Jun-25 06:28S 30°31' E 030°55'1415.5
2014-Jun-25 05:34S 30°20' E 031°05'1413.5
2014-Jun-25 04:33S 30°09' E 031°14'1413.7
2014-Jun-25 03:33S 29°59' E 031°24'1414.0
2014-Jun-25 02:33S 29°47' E 031°34'1414.0
2014-Jun-25 01:34S 29°36' E 031°44'1414.1
2014-Jun-25 00:33S 29°25' E 031°53'1414.1
2014-Jun-24 23:33S 29°14' E 032°03'1414.0
2014-Jun-24 22:33S 29°03' E 032°13'1714.0
2014-Jun-24 21:19S 28°49' E 032°25'1113.7
2014-Jun-24 20:33S 28°40' E 032°32'2713.4
2014-Jun-24 18:33S 28°19' E 032°51'1313.1
2014-Jun-24 17:33S 28°09' E 032°59'1513.0
2014-Jun-24 16:23S 27°57' E 033°10'1012.6
2014-Jun-24 15:33S 27°48' E 033°17'8212.8
2014-Jun-24 09:05S 26°42' E 034°13'  
Track history (hours):
 
Tides and Currents Weather Stations Pressure Air Temp Water Temp Dewpoint Dewpoint Depression Visibility Wind Speed Wind Dir Waves Ship Positions

Santa Barbara

Last reported at 2014-Jun-26 15:09 UTC. Time now 2014-Jul-23 18:10 UTC.
Position S 34°17' E 025°22'.
Warning: this ship's position is 27 days out of date.

Length 229 m; draft 8 m.

Type: Ship. MMSI: 538002632.

Date/timePositionNaut miles runAvg speedWind from/ knotsBaromVisibWave heightAir tempDewpointWater temp
2014-Jun-26 15:09S 34°17' E 025°22'5 6.3
2014-Jun-26 14:26S 34°16' E 025°27'7 7.0
2014-Jun-26 13:27S 34°14' E 025°35'101 9.3
2014-Jun-26 02:32S 33°33' E 027°26'12111.8
2014-Jun-25 16:17S 32°12' E 029°13'5513.9
2014-Jun-25 12:20S 31°31' E 029°56'7813.3
2014-Jun-25 06:28S 30°31' E 030°55'1415.5
2014-Jun-25 05:34S 30°20' E 031°05'1413.5
2014-Jun-25 04:33S 30°09' E 031°14'1413.7
2014-Jun-25 03:33S 29°59' E 031°24'1414.0
2014-Jun-25 02:33S 29°47' E 031°34'1414.0
2014-Jun-25 01:34S 29°36' E 031°44'1414.1
2014-Jun-25 00:33S 29°25' E 031°53'1414.1
2014-Jun-24 23:33S 29°14' E 032°03'1414.0
2014-Jun-24 22:33S 29°03' E 032°13'1714.0
2014-Jun-24 21:19S 28°49' E 032°25'1113.7
2014-Jun-24 20:33S 28°40' E 032°32'2713.4
2014-Jun-24 18:33S 28°19' E 032°51'1313.1
2014-Jun-24 17:33S 28°09' E 032°59'1513.0
2014-Jun-24 16:23S 27°57' E 033°10'1012.6
2014-Jun-24 15:33S 27°48' E 033°17'8212.8
2014-Jun-24 09:05S 26°42' E 034°13'  

Dump ship's entire track history